Time;durP1;ratioP1;P1;durP2;ratioP2;P2;SDS_P1;SDS_P2;PMS_P1;PMS_P2;Temp;Humidity;BMP_temperature;BMP_pressure;BME280_temperature;BME280_humidity;BME280_pressure;Samples;Min_cycle;Max_cycle;Signal;HPM_P1;HPM_P2
2023/06/13 00:01:08;;;;;;;2.55;2.17;;;;;;;28.29;40.49;101582.19;4997289;28;20358;-32
2023/06/13 00:03:37;;;;;;;3.08;2.30;;;;;;;28.27;41.21;101578.00;4998415;28;20056;-33
2023/06/13 00:06:03;;;;;;;2.72;2.20;;;;;;;28.25;41.02;101574.63;4995857;28;20506;-33
2023/06/13 00:08:31;;;;;;;3.15;2.40;;;;;;;28.23;40.70;101574.00;4997406;28;20061;-32
2023/06/13 00:10:59;;;;;;;3.50;2.58;;;;;;;28.19;40.92;101568.13;4994640;28;20454;-32
2023/06/13 00:13:25;;;;;;;2.83;2.20;;;;;;;28.17;40.56;101569.34;4997663;28;20046;-33
2023/06/13 00:15:56;;;;;;;3.50;2.30;;;;;;;28.14;40.65;101562.44;4995156;28;20364;-33
2023/06/13 00:18:23;;;;;;;3.25;2.40;;;;;;;28.13;40.88;101568.09;4999268;28;20132;-33
2023/06/13 00:20:54;;;;;;;2.97;2.60;;;;;;;28.11;41.24;101564.72;4996157;28;20055;-32
2023/06/13 00:23:22;;;;;;;3.13;2.30;;;;;;;28.08;40.98;101565.13;4999251;28;20116;-32
2023/06/13 00:25:50;;;;;;;3.08;2.58;;;;;;;28.05;40.54;101560.91;4997099;28;20104;-32
2023/06/13 00:28:17;;;;;;;2.55;2.35;;;;;;;28.04;41.24;101561.97;4994133;28;20116;-33
2023/06/13 00:30:45;;;;;;;2.83;2.47;;;;;;;28.01;41.32;101568.66;4992392;28;20137;-33
2023/06/13 00:33:16;;;;;;;2.50;2.30;;;;;;;28.00;41.10;101561.53;4998318;28;20058;-32
2023/06/13 00:35:46;;;;;;;3.15;2.55;;;;;;;27.99;41.48;101567.19;4999473;28;20303;-32
2023/06/13 00:38:13;;;;;;;2.60;2.40;;;;;;;27.96;41.43;101568.44;4998572;28;20461;-33
2023/06/13 00:40:40;;;;;;;2.53;2.30;;;;;;;27.94;40.85;101565.09;5001374;28;20106;-32
2023/06/13 00:43:07;;;;;;;2.50;2.30;;;;;;;27.93;41.19;101568.81;5001122;28;20060;-32
2023/06/13 00:45:34;;;;;;;3.50;2.47;;;;;;;27.92;41.04;101560.88;4999751;28;20081;-33
2023/06/13 00:48:05;;;;;;;3.78;2.45;;;;;;;27.90;41.53;101558.34;5000727;28;20050;-33
2023/06/13 00:50:40;;;;;;;2.70;2.40;;;;;;;27.88;41.08;101559.59;5001343;28;20077;-32
2023/06/13 00:53:16;;;;;;;3.08;2.40;;;;;;;27.87;41.17;101556.03;5001510;28;20181;-33
2023/06/13 00:55:44;;;;;;;4.35;2.50;;;;;;;27.87;41.33;101563.38;5001355;28;20062;-33
2023/06/13 00:58:12;;;;;;;3.25;2.72;;;;;;;27.85;41.47;101560.00;5001528;28;20121;-32
2023/06/13 01:00:40;;;;;;;2.72;2.40;;;;;;;27.84;40.90;101563.75;5002318;28;20406;-33
2023/06/13 01:03:09;;;;;;;3.95;2.45;;;;;;;27.84;41.13;101559.16;5000364;28;20058;-33
2023/06/13 01:05:38;;;;;;;3.17;2.50;;;;;;;27.81;40.82;101556.81;5002186;28;20144;-32
2023/06/13 01:08:09;;;;;;;2.42;2.22;;;;;;;27.80;40.63;101563.31;5003312;28;20045;-32
2023/06/13 01:10:40;;;;;;;2.60;2.20;;;;;;;27.81;40.92;101559.53;4999744;28;20057;-32
2023/06/13 01:13:28;;;;;;;3.05;2.63;;;;;;;27.77;40.99;101555.53;5008107;28;20050;-32
2023/06/13 01:16:02;;;;;;;2.83;2.40;;;;;;;27.79;41.02;101556.19;5001780;28;20501;-32
2023/06/13 01:18:33;;;;;;;3.25;2.55;;;;;;;27.79;41.07;101553.47;4998913;28;20042;-32
2023/06/13 01:21:02;;;;;;;2.75;2.30;;;;;;;27.78;41.08;101555.34;4999678;28;20401;-32
2023/06/13 01:23:49;;;;;;;2.97;2.38;;;;;;;27.77;41.33;101561.81;5000107;28;20042;-33
2023/06/13 01:26:33;;;;;;;4.20;2.60;;;;;;;27.77;40.83;101555.53;5000913;28;20050;-32
2023/06/13 01:29:01;;;;;;;;;;;;;;;27.71;40.86;101546.28;4999821;28;20046;-32
2023/06/13 01:31:28;;;;;;;3.55;2.20;;;;;;;27.76;40.96;101557.44;4997385;28;20357;-33
2023/06/13 01:33:55;;;;;;;2.72;2.20;;;;;;;27.73;41.00;101556.97;4997637;28;20058;-32
2023/06/13 01:36:22;;;;;;;3.05;2.17;;;;;;;27.71;41.01;101548.16;4997415;28;20525;-32
2023/06/13 01:38:49;;;;;;;3.35;2.40;;;;;;;27.70;40.80;101557.34;4995580;28;20450;-32
2023/06/13 01:41:15;;;;;;;3.03;2.50;;;;;;;27.69;41.15;101555.66;4997960;28;20113;-33
2023/06/13 01:43:42;;;;;;;3.13;2.47;;;;;;;27.68;41.30;101556.72;4998558;28;20060;-33
2023/06/13 01:46:29;;;;;;;2.92;2.50;;;;;;;27.66;41.41;101556.06;4994014;28;20718;-32
2023/06/13 01:49:12;;;;;;;2.95;2.25;;;;;;;27.67;41.25;101557.78;4998854;28;20054;-32
2023/06/13 01:52:10;;;;;;;2.28;2.08;;;;;;;27.65;41.11;101557.13;5009214;28;20137;-33
2023/06/13 01:54:45;;;;;;;3.33;2.35;;;;;;;27.66;41.15;101550.63;4999503;28;20089;-33
2023/06/13 01:57:16;;;;;;;2.72;2.33;;;;;;;27.64;41.05;101550.00;4991248;28;20046;-32
2023/06/13 01:59:43;;;;;;;2.85;2.15;;;;;;;27.65;40.75;101554.41;5001864;28;20553;-33
2023/06/13 02:02:12;;;;;;;2.60;2.38;;;;;;;27.63;40.97;101548.31;5001104;28;20109;-32
2023/06/13 02:04:43;;;;;;;2.53;2.10;;;;;;;27.62;41.06;101555.66;5001249;28;20088;-32
2023/06/13 02:07:10;;;;;;;2.47;2.28;;;;;;;27.62;41.00;101554.78;4992098;28;20434;-32
2023/06/13 02:09:37;;;;;;;2.35;2.10;;;;;;;27.60;40.94;101555.00;4996475;28;20129;-32
2023/06/13 02:12:04;;;;;;;3.47;2.28;;;;;;;27.60;41.27;101546.00;4993219;28;20142;-33
2023/06/13 02:14:32;;;;;;;2.47;2.05;;;;;;;27.59;41.10;101553.31;4996468;28;20438;-33
2023/06/13 02:16:59;;;;;;;3.08;2.42;;;;;;;27.58;41.30;101562.53;4995892;28;20341;-32
2023/06/13 02:19:26;;;;;;;3.20;2.47;;;;;;;27.58;41.45;101561.69;4996432;28;20049;-32
2023/06/13 02:21:53;;;;;;;2.30;2.10;;;;;;;27.57;41.40;101549.94;4996219;28;20055;-33
2023/06/13 02:24:20;;;;;;;2.67;2.38;;;;;;;27.57;41.15;101549.94;4996976;28;20058;-33
2023/06/13 02:26:47;;;;;;;2.40;2.03;;;;;;;27.56;41.39;101548.28;4998441;28;20080;-32
2023/06/13 02:29:14;;;;;;;3.88;2.35;;;;;;;27.55;41.44;101555.59;4995802;28;20081;-32
2023/06/13 02:31:41;;;;;;;5.30;2.35;;;;;;;27.55;40.92;101555.59;4996130;28;20108;-32
2023/06/13 02:34:08;;;;;;;2.72;2.20;;;;;;;27.52;41.43;101561.44;4997155;28;20058;-32
2023/06/13 02:36:36;;;;;;;3.55;2.25;;;;;;;27.52;41.29;101560.59;4998364;28;20085;-32
2023/06/13 02:39:03;;;;;;;2.92;2.33;;;;;;;27.52;40.71;101561.44;5001607;28;20137;-32
2023/06/13 02:41:30;;;;;;;2.72;2.30;;;;;;;27.52;41.07;101555.16;5002765;28;20137;-32
2023/06/13 02:43:56;;;;;;;2.97;2.13;;;;;;;27.50;41.09;101563.53;5002736;28;20454;-32
2023/06/13 02:46:23;;;;;;;2.53;1.98;;;;;;;27.50;41.28;101555.38;5003220;28;20078;-32
2023/06/13 02:48:49;;;;;;;2.80;2.42;;;;;;;27.48;41.27;101553.88;5001725;28;20054;-33
2023/06/13 02:51:16;;;;;;;2.88;2.03;;;;;;;27.47;40.96;101563.09;5001542;28;20050;-32
2023/06/13 02:53:43;;;;;;;3.25;2.58;;;;;;;27.46;40.89;101558.69;5003408;28;20097;-33
2023/06/13 02:56:11;;;;;;;2.65;2.25;;;;;;;27.44;41.20;101558.88;5001806;28;20500;-32
2023/06/13 02:58:38;;;;;;;3.13;2.28;;;;;;;27.44;41.26;101564.31;4998512;28;20458;-32
2023/06/13 03:01:05;;;;;;;2.50;2.15;;;;;;;27.43;41.24;101564.53;5001405;28;20105;-32
2023/06/13 03:03:32;;;;;;;2.88;2.17;;;;;;;27.41;41.69;101567.44;5000204;28;20149;-33
2023/06/13 03:05:59;;;;;;;2.97;2.22;;;;;;;27.40;40.95;101573.09;5001573;28;20065;-32
2023/06/13 03:08:26;;;;;;;3.22;2.40;;;;;;;27.38;41.36;101565.13;4999619;28;20038;-33
2023/06/13 03:10:53;;;;;;;2.13;1.92;;;;;;;27.38;40.92;101570.56;5009772;28;20053;-32
2023/06/13 03:13:20;;;;;;;3.67;2.70;;;;;;;27.37;41.32;101573.47;4998629;28;20430;-33
2023/06/13 03:15:47;;;;;;;2.83;2.20;;;;;;;27.35;41.26;101570.97;4995520;28;20117;-32
2023/06/13 03:18:14;;;;;;;2.78;2.10;;;;;;;27.34;40.93;101574.75;4994858;28;20469;-32
2023/06/13 03:20:47;;;;;;;3.05;2.10;;;;;;;27.34;41.58;101576.59;4997746;28;20081;-32
2023/06/13 03:23:15;;;;;;;5.63;2.47;;;;;;;27.32;41.27;101571.34;4999001;28;20092;-32
2023/06/13 03:25:42;;;;;;;2.70;2.38;;;;;;;27.30;41.15;101574.28;5004528;28;20073;-32
2023/06/13 03:28:09;;;;;;;3.38;2.42;;;;;;;27.29;41.42;101574.47;5007980;28;20743;-32
2023/06/13 03:30:37;;;;;;;3.00;2.55;;;;;;;27.28;41.19;101576.34;5006062;28;20054;-32
2023/06/13 03:33:04;;;;;;;2.67;2.08;;;;;;;27.29;41.70;101574.47;5006736;28;20127;-32
2023/06/13 03:35:32;;;;;;;2.78;2.30;;;;;;;27.26;41.51;101572.16;5008541;28;20294;-32
2023/06/13 03:37:58;;;;;;;3.45;2.08;;;;;;;27.25;41.67;101568.56;5009458;28;20323;-32
2023/06/13 03:40:25;;;;;;;2.47;2.20;;;;;;;27.25;41.65;101576.75;5009187;28;20050;-32
2023/06/13 03:42:51;;;;;;;2.70;2.20;;;;;;;27.24;41.24;101575.06;5008563;28;20053;-32
2023/06/13 03:45:19;;;;;;;3.10;2.33;;;;;;;27.24;41.36;101568.78;5005347;28;20089;-32
2023/06/13 03:47:46;;;;;;;3.28;2.33;;;;;;;27.23;41.63;101572.56;5007317;28;20307;-32
2023/06/13 03:50:13;;;;;;;2.35;2.15;;;;;;;27.21;41.48;101574.63;5005420;28;20159;-32
2023/06/13 03:52:40;;;;;;;2.97;2.42;;;;;;;27.20;41.33;101581.09;5006428;28;20054;-33
2023/06/13 03:55:07;;;;;;;3.30;2.13;;;;;;;27.18;41.74;101573.16;5005234;28;20469;-32
2023/06/13 03:57:35;;;;;;;3.78;2.58;;;;;;;27.18;41.36;101580.47;5000002;28;20054;-32
2023/06/13 04:00:05;;;;;;;2.75;2.17;;;;;;;27.18;41.81;101573.16;4998563;28;20202;-32
2023/06/13 04:02:31;;;;;;;2.78;2.20;;;;;;;27.16;41.30;101572.47;5000525;28;20049;-33
2023/06/13 04:04:58;;;;;;;2.95;2.03;;;;;;;27.16;41.67;101577.09;4997825;28;20057;-32
2023/06/13 04:07:25;;;;;;;2.95;2.25;;;;;;;27.15;41.38;101581.69;4998501;28;20058;-33
2023/06/13 04:09:51;;;;;;;2.78;2.17;;;;;;;27.16;41.71;101582.53;5003346;28;20050;-32
2023/06/13 04:12:20;;;;;;;4.53;2.38;;;;;;;27.15;41.62;101583.56;4995556;28;20060;-33
2023/06/13 04:14:47;;;;;;;2.92;2.28;;;;;;;27.13;41.77;101581.03;4995094;28;20069;-32
2023/06/13 04:17:13;;;;;;;2.80;1.88;;;;;;;27.14;41.41;101579.19;4998000;28;20105;-32
2023/06/13 04:19:40;;;;;;;2.75;2.22;;;;;;;27.12;41.54;101578.53;4995510;28;20350;-32
2023/06/13 04:22:07;;;;;;;2.83;1.80;;;;;;;27.13;41.63;101577.47;4999362;28;20081;-32
2023/06/13 04:24:33;;;;;;;2.17;1.98;;;;;;;27.13;41.60;101572.03;4997493;28;20077;-32
2023/06/13 04:27:03;;;;;;;2.60;2.08;;;;;;;27.12;41.41;101581.25;4998667;28;20096;-33
2023/06/13 04:29:31;;;;;;;2.70;2.22;;;;;;;27.12;41.55;101582.09;4996473;28;20057;-32
2023/06/13 04:31:57;;;;;;;2.92;1.98;;;;;;;27.10;41.56;101575.09;4996661;28;20152;-32
2023/06/13 04:34:24;;;;;;;2.33;2.03;;;;;;;27.10;41.39;101576.00;4994894;28;20066;-33
2023/06/13 04:36:55;;;;;;;2.65;2.17;;;;;;;27.08;41.45;101578.88;5000343;28;20066;-32
2023/06/13 04:39:25;;;;;;;2.55;1.88;;;;;;;27.11;41.21;101579.56;5000025;28;20046;-32
2023/06/13 04:41:55;;;;;;;2.95;2.17;;;;;;;27.10;41.76;101573.28;4996259;28;20128;-32
2023/06/13 04:44:26;;;;;;;2.60;2.28;;;;;;;27.09;41.66;101577.00;4992826;28;20054;-32
2023/06/13 04:47:01;;;;;;;2.75;2.13;;;;;;;27.11;41.74;101580.41;4991934;28;20354;-33
2023/06/13 04:49:28;;;;;;;2.55;2.03;;;;;;;27.11;41.42;101577.69;4997114;28;20046;-32
2023/06/13 04:51:55;;;;;;;3.83;2.22;;;;;;;27.13;41.24;101582.91;5003258;28;20057;-32
2023/06/13 04:54:22;;;;;;;3.30;2.20;;;;;;;27.13;41.69;101582.91;5001882;28;20421;-32
2023/06/13 04:56:49;;;;;;;3.33;2.42;;;;;;;27.14;41.47;101584.63;5001887;28;20049;-32
2023/06/13 04:59:16;;;;;;;2.60;2.20;;;;;;;27.15;41.75;101578.13;5001106;28;20081;-32
2023/06/13 05:01:43;;;;;;;2.67;2.10;;;;;;;27.16;41.66;101582.53;5005537;28;20060;-32
2023/06/13 05:04:10;;;;;;;3.47;2.15;;;;;;;27.18;41.22;101583.19;4999661;28;20385;-33
2023/06/13 05:06:37;;;;;;;2.45;2.05;;;;;;;27.18;41.33;101589.47;5002950;28;20045;-33
2023/06/13 05:09:06;;;;;;;2.47;2.28;;;;;;;27.20;41.44;101594.72;5003178;28;20050;-33
2023/06/13 05:11:33;;;;;;;2.30;2.03;;;;;;;27.21;41.42;101596.38;5003705;28;20132;-32
2023/06/13 05:13:59;;;;;;;2.50;2.30;;;;;;;27.23;41.13;101605.22;5003538;28;20328;-33
2023/06/13 05:16:29;;;;;;;2.97;2.10;;;;;;;27.25;41.14;101609.41;5004558;28;20336;-32
2023/06/13 05:18:57;;;;;;;3.90;2.40;;;;;;;27.26;41.04;101611.09;5004040;28;20114;-32
2023/06/13 05:21:24;;;;;;;3.72;2.35;;;;;;;27.28;41.49;101602.72;5001370;28;20054;-33
2023/06/13 05:23:51;;;;;;;2.22;1.88;;;;;;;27.30;41.11;101611.56;4996055;28;20124;-32
2023/06/13 05:26:18;;;;;;;2.40;2.03;;;;;;;27.31;41.29;101602.34;5004051;28;20062;-32
2023/06/13 05:28:44;;;;;;;2.88;2.28;;;;;;;27.34;40.97;101610.13;5002269;28;20318;-34
2023/06/13 05:31:12;;;;;;;2.47;2.05;;;;;;;27.35;40.85;101613.69;5001722;28;20431;-32
2023/06/13 05:33:40;;;;;;;3.88;2.35;;;;;;;27.38;40.82;101616.00;5000762;28;20137;-33
2023/06/13 05:36:06;;;;;;;2.63;2.20;;;;;;;27.39;41.13;101614.97;5002292;28;20054;-32
2023/06/13 05:38:33;;;;;;;3.05;2.20;;;;;;;27.41;40.56;101619.16;4999471;28;20081;-33
2023/06/13 05:41:00;;;;;;;2.63;2.00;;;;;;;27.42;40.71;101620.88;5001248;28;20058;-32
2023/06/13 05:43:27;;;;;;;2.50;2.25;;;;;;;27.44;40.78;101612.50;5000831;28;20077;-33
2023/06/13 05:45:53;;;;;;;2.10;1.85;;;;;;;27.47;40.61;101623.00;4998179;28;20069;-32
2023/06/13 05:48:20;;;;;;;2.47;2.03;;;;;;;27.49;41.07;101620.91;4999163;28;20104;-32
2023/06/13 05:50:47;;;;;;;2.22;1.73;;;;;;;27.49;40.99;101616.28;5000557;28;20057;-32
2023/06/13 05:53:13;;;;;;;3.20;2.20;;;;;;;27.53;40.90;101622.19;4997603;28;20054;-32
2023/06/13 05:55:40;;;;;;;2.90;2.42;;;;;;;27.54;40.59;101615.72;5002406;28;20082;-32
2023/06/13 05:58:06;;;;;;;2.65;2.20;;;;;;;27.56;40.25;101619.06;4991421;28;20051;-32
2023/06/13 06:00:33;;;;;;;2.63;2.00;;;;;;;27.58;40.18;101618.88;5000676;28;20057;-33
2023/06/13 06:03:04;;;;;;;2.85;2.40;;;;;;;27.58;40.35;101619.75;4993426;28;20101;-32
2023/06/13 06:05:31;;;;;;;2.90;2.00;;;;;;;27.59;40.20;101617.84;5022660;28;20390;-32
2023/06/13 06:07:58;;;;;;;2.80;2.38;;;;;;;27.59;40.20;101615.97;5008275;28;20050;-33
2023/06/13 06:10:24;;;;;;;2.35;2.15;;;;;;;27.59;40.27;101620.56;4998914;28;20054;-33
2023/06/13 06:12:51;;;;;;;2.90;2.30;;;;;;;27.59;40.28;101617.84;4997239;28;20125;-32
2023/06/13 06:15:18;;;;;;;4.30;2.35;;;;;;;27.59;40.27;101615.97;4994034;28;20054;-33
2023/06/13 06:17:44;;;;;;;2.33;2.08;;;;;;;27.59;40.50;101615.97;5003234;28;20136;-32
2023/06/13 06:20:11;;;;;;;2.63;2.08;;;;;;;27.58;39.87;101625.19;4997953;28;20054;-33
2023/06/13 06:22:39;;;;;;;3.50;2.35;;;;;;;27.58;40.27;101619.75;5003428;28;20173;-33
2023/06/13 06:25:08;;;;;;;2.20;2.00;;;;;;;27.58;40.13;101616.16;5003872;28;20127;-33
2023/06/13 06:27:35;;;;;;;2.45;1.90;;;;;;;27.59;40.46;101615.97;5004281;28;20054;-32
2023/06/13 06:30:04;;;;;;;4.38;2.10;;;;;;;27.59;40.49;101615.13;5000133;28;20109;-33
2023/06/13 06:32:31;;;;;;;2.78;2.33;;;;;;;27.60;40.39;101616.81;5002810;28;20129;-33
2023/06/13 06:34:58;;;;;;;2.80;2.38;;;;;;;27.59;39.98;101624.13;4999908;28;20065;-32
2023/06/13 06:37:25;;;;;;;2.65;2.17;;;;;;;27.59;40.46;101621.41;5002348;28;20610;-33
2023/06/13 06:39:52;;;;;;;2.30;2.05;;;;;;;27.60;40.21;101623.09;5001072;28;20046;-32
2023/06/13 06:42:19;;;;;;;2.08;1.88;;;;;;;27.60;39.85;101611.34;5003868;28;20058;-33
2023/06/13 06:44:46;;;;;;;3.00;2.45;;;;;;;27.60;40.05;101616.81;5001352;28;20053;-32
2023/06/13 06:47:12;;;;;;;3.53;2.20;;;;;;;27.60;40.38;101617.63;5002651;28;20103;-32
2023/06/13 06:49:39;;;;;;;5.57;2.30;;;;;;;27.59;39.91;101624.13;5008118;28;20050;-32
2023/06/13 06:52:06;;;;;;;2.58;2.13;;;;;;;27.60;39.96;101619.53;5002904;28;20057;-33
2023/06/13 06:54:33;;;;;;;2.60;2.33;;;;;;;27.59;40.15;101615.13;5009490;28;20065;-32
2023/06/13 06:57:01;;;;;;;2.83;2.45;;;;;;;27.58;40.39;101616.16;5005382;28;20320;-32
2023/06/13 06:59:29;;;;;;;3.25;2.50;;;;;;;27.58;40.10;101608.84;5000661;28;20049;-32
2023/06/13 07:01:56;;;;;;;2.53;2.25;;;;;;;27.58;40.08;101605.25;5002510;28;20410;-32
2023/06/13 07:04:23;;;;;;;3.10;2.33;;;;;;;27.58;40.34;101613.41;4993091;28;20058;-33
2023/06/13 07:06:50;;;;;;;3.08;2.20;;;;;;;27.59;40.15;101612.41;5000307;28;20049;-32
2023/06/13 07:09:16;;;;;;;2.70;2.08;;;;;;;27.59;39.99;101612.41;5001376;28;20046;-32
2023/06/13 07:11:43;;;;;;;2.95;2.30;;;;;;;27.59;40.45;101618.69;5001435;28;20084;-33
2023/06/13 07:14:10;;;;;;;2.90;2.28;;;;;;;27.60;39.81;101617.63;4998800;28;20054;-32
2023/06/13 07:16:37;;;;;;;3.05;2.28;;;;;;;27.61;40.09;101618.47;4999777;28;20108;-33
2023/06/13 07:19:03;;;;;;;2.42;2.00;;;;;;;27.61;39.86;101613.88;4997932;28;20122;-33
2023/06/13 07:21:30;;;;;;;2.97;2.50;;;;;;;27.62;40.32;101611.97;4998949;28;20077;-32
2023/06/13 07:23:56;;;;;;;4.28;2.25;;;;;;;27.63;39.97;101619.97;5001416;28;20370;-32
2023/06/13 07:26:34;;;;;;;3.95;2.00;;;;;;;27.63;40.20;101617.25;4999429;28;20046;-33
2023/06/13 07:29:01;;;;;;;3.03;2.22;;;;;;;27.64;39.98;101621.66;4998100;28;20050;-33
2023/06/13 07:31:27;;;;;;;2.65;2.03;;;;;;;27.66;39.88;101621.44;4995848;28;20054;-32
2023/06/13 07:33:54;;;;;;;2.80;2.38;;;;;;;27.67;39.93;101628.59;4994197;28;20060;-32
2023/06/13 07:36:21;;;;;;;2.67;2.20;;;;;;;27.67;39.99;101618.53;4996754;28;20066;-33
2023/06/13 07:38:50;;;;;;;2.83;2.05;;;;;;;27.67;39.83;101613.09;5010001;28;20038;-33
2023/06/13 07:41:17;;;;;;;2.97;2.20;;;;;;;27.69;39.81;101615.59;4993187;28;20318;-32
2023/06/13 07:43:44;;;;;;;2.95;2.13;;;;;;;27.69;40.22;101613.72;5042672;28;20053;-33
2023/06/13 07:46:10;;;;;;;2.53;2.20;;;;;;;27.70;39.61;101622.72;5010962;28;20081;-33
2023/06/13 07:48:37;;;;;;;3.03;2.20;;;;;;;27.71;40.20;101613.53;5010374;28;20084;-32
2023/06/13 07:51:05;;;;;;;2.97;2.53;;;;;;;27.71;39.93;101616.25;5010419;28;20084;-33
2023/06/13 07:53:31;;;;;;;3.38;2.10;;;;;;;27.72;39.99;101615.22;5006794;28;20046;-33
2023/06/13 07:55:58;;;;;;;3.25;2.03;;;;;;;27.72;39.39;101617.94;4998320;28;20061;-33
2023/06/13 07:58:25;;;;;;;3.00;2.17;;;;;;;27.72;39.87;101609.75;4997609;28;20451;-33
2023/06/13 08:00:51;;;;;;;2.08;1.75;;;;;;;27.73;40.05;101617.75;5002492;28;20058;-32
2023/06/13 08:03:18;;;;;;;4.18;2.28;;;;;;;27.74;39.61;101613.13;4997631;28;20077;-32
2023/06/13 08:05:47;;;;;;;3.20;2.30;;;;;;;27.74;39.38;101603.13;4996835;28;20519;-32
2023/06/13 08:08:14;;;;;;;2.65;2.08;;;;;;;27.75;39.79;101599.34;5001572;28;20050;-32
2023/06/13 08:10:41;;;;;;;2.70;2.15;;;;;;;27.76;39.66;101613.81;4996858;28;20058;-33
2023/06/13 08:13:07;;;;;;;3.40;2.50;;;;;;;27.76;39.49;101594.72;4997276;28;20100;-33
2023/06/13 08:15:34;;;;;;;2.67;2.00;;;;;;;27.78;39.50;101600.84;4991248;28;20141;-32
2023/06/13 08:18:01;;;;;;;2.92;2.05;;;;;;;27.77;39.51;101596.41;4998754;28;20077;-32
2023/06/13 08:20:27;;;;;;;4.03;2.30;;;;;;;27.78;39.15;101606.28;4998419;28;20042;-33
2023/06/13 08:22:55;;;;;;;3.13;2.30;;;;;;;27.78;39.68;101598.13;5000133;28;20355;-32
2023/06/13 08:25:22;;;;;;;3.10;2.15;;;;;;;27.78;39.36;101590.78;5000834;28;20045;-32
2023/06/13 08:27:49;;;;;;;3.90;2.60;;;;;;;27.79;38.89;101603.34;4996839;28;20047;-33
2023/06/13 08:30:16;;;;;;;4.25;2.47;;;;;;;27.79;39.00;101595.19;4991527;28;20053;-32
2023/06/13 08:32:46;;;;;;;5.28;2.40;;;;;;;27.80;38.79;101602.28;4994905;28;20427;-32
2023/06/13 08:35:13;;;;;;;4.00;2.30;;;;;;;27.80;38.44;101593.28;5005181;28;20058;-33
2023/06/13 08:37:40;;;;;;;3.20;2.70;;;;;;;27.81;38.60;101592.25;4998165;28;20051;-33
2023/06/13 08:40:09;;;;;;;5.07;2.65;;;;;;;27.82;38.37;101593.06;4997503;28;20097;-32
2023/06/13 08:42:38;;;;;;;6.03;2.58;;;;;;;27.82;38.44;101599.38;5000018;28;20054;-33
2023/06/13 08:45:07;;;;;;;2.63;2.35;;;;;;;27.82;38.15;101585.78;4996826;28;20058;-33
2023/06/13 08:47:33;;;;;;;5.30;2.40;;;;;;;27.84;38.65;101585.56;4997941;28;20142;-33
2023/06/13 08:50:07;;;;;;;3.88;2.50;;;;;;;27.83;38.49;101592.88;4998230;28;20047;-33
2023/06/13 08:52:39;;;;;;;8.68;2.53;;;;;;;27.83;38.04;101584.72;4999608;28;20132;-33
2023/06/13 08:55:12;;;;;;;2.63;2.28;;;;;;;27.83;37.99;101590.16;4998927;28;20062;-33
2023/06/13 08:58:02;;;;;;;2.83;2.20;;;;;;;27.87;38.27;101596.91;4999068;28;20090;-34
2023/06/13 09:00:33;;;;;;;3.88;2.70;;;;;;;27.86;37.79;101584.31;4998892;28;20465;-34
2023/06/13 09:03:04;;;;;;;5.03;2.45;;;;;;;27.87;38.20;101590.59;4996290;28;20426;-33
2023/06/13 09:05:32;;;;;;;3.70;3.00;;;;;;;27.88;38.70;101575.94;4995231;28;20050;-33
2023/06/13 09:08:00;;;;;;;3.22;2.60;;;;;;;27.88;38.62;101574.06;4999053;28;20132;-34
2023/06/13 09:10:47;;;;;;;3.30;2.78;;;;;;;27.89;38.47;101574.88;5003217;28;20065;-33
2023/06/13 09:13:15;;;;;;;4.95;2.65;;;;;;;27.91;38.71;101586.44;5005147;28;20090;-33
2023/06/13 09:15:44;;;;;;;4.13;2.95;;;;;;;27.91;38.67;101575.53;5003914;28;20065;-33
2023/06/13 09:18:11;;;;;;;3.15;2.60;;;;;;;27.94;38.82;101578.72;5000234;28;20438;-32
2023/06/13 09:20:38;;;;;;;2.53;2.30;;;;;;;27.95;38.37;101579.53;4990421;28;20512;-33
2023/06/13 09:23:05;;;;;;;2.72;2.28;;;;;;;27.97;38.43;101583.72;5005740;28;20077;-33
2023/06/13 09:25:35;;;;;;;3.05;2.33;;;;;;;28.00;38.86;101579.78;4997318;28;20073;-33
2023/06/13 09:28:29;;;;;;;2.92;2.00;;;;;;;28.01;38.95;101565.09;5005913;28;20144;-33
2023/06/13 09:30:57;;;;;;;2.60;2.30;;;;;;;28.05;38.70;101567.19;5005161;28;20046;-33
2023/06/13 09:33:24;;;;;;;3.95;2.53;;;;;;;28.08;39.03;101576.88;4999420;28;20108;-33
2023/06/13 09:35:52;;;;;;;2.70;2.30;;;;;;;28.12;39.01;101571.84;5003424;28;20145;-33
2023/06/13 09:38:23;;;;;;;3.15;2.55;;;;;;;28.15;39.07;101576.91;4999267;28;20050;-33
2023/06/13 09:40:53;;;;;;;3.92;2.75;;;;;;;28.18;39.41;101574.63;5001803;28;20057;-33
2023/06/13 09:43:21;;;;;;;3.25;2.45;;;;;;;28.22;39.12;101575.03;5003327;28;20057;-34
2023/06/13 09:45:48;;;;;;;3.17;2.47;;;;;;;28.25;38.50;101574.63;5005174;28;20058;-33
2023/06/13 09:48:15;;;;;;;2.25;2.00;;;;;;;28.28;38.94;101563.31;5007236;28;20448;-33
2023/06/13 09:50:42;;;;;;;3.65;2.33;;;;;;;28.31;39.21;101568.38;5004073;28;20046;-33
2023/06/13 09:53:18;;;;;;;3.13;2.10;;;;;;;28.33;38.91;101576.34;5006149;28;20042;-33
2023/06/13 09:55:44;;;;;;;4.93;2.58;;;;;;;28.35;38.94;101558.75;5003551;28;20066;-33
2023/06/13 09:58:11;;;;;;;3.10;2.47;;;;;;;28.39;39.24;101557.31;4996830;28;20046;-35
2023/06/13 10:00:58;;;;;;;4.38;2.60;;;;;;;28.42;38.93;101565.09;5000406;28;20078;-33
2023/06/13 10:03:29;;;;;;;3.33;2.40;;;;;;;28.45;38.95;101561.94;4997475;28;20053;-33
2023/06/13 10:06:00;;;;;;;3.55;2.40;;;;;;;28.47;39.06;101559.84;4996280;28;20050;-32
2023/06/13 10:08:27;;;;;;;4.57;2.83;;;;;;;28.49;38.24;101560.47;5002307;28;20393;-32
2023/06/13 10:10:54;;;;;;;5.60;2.58;;;;;;;28.52;38.84;101557.34;5007292;28;20485;-32
2023/06/13 10:13:26;;;;;;;3.67;2.60;;;;;;;28.55;38.83;101555.25;4999172;28;20390;-31
2023/06/13 10:15:57;;;;;;;3.22;2.58;;;;;;;28.57;38.22;101553.97;4996859;28;20050;-32
2023/06/13 10:18:36;;;;;;;3.08;2.60;;;;;;;28.58;38.90;101558.38;4998532;28;20370;-32
2023/06/13 10:21:06;;;;;;;2.85;2.05;;;;;;;28.61;38.77;101557.97;5008615;28;20054;-32
2023/06/13 10:23:40;;;;;;;3.33;2.25;;;;;;;28.63;38.14;101555.91;4996835;28;20125;-33
2023/06/13 10:26:09;;;;;;;3.67;2.55;;;;;;;28.65;38.66;101558.41;4999941;28;20058;-32
2023/06/13 10:28:53;;;;;;;3.08;2.22;;;;;;;28.67;38.31;101562.63;4996004;28;20054;-32
2023/06/13 10:31:51;;;;;;;2.72;2.38;;;;;;;28.69;38.20;101556.94;4994811;28;20726;-31
2023/06/13 10:34:17;;;;;;;3.00;2.30;;;;;;;28.72;38.85;101564.72;5000516;28;20054;-32
2023/06/13 10:36:47;;;;;;;3.13;2.30;;;;;;;28.73;38.02;101548.13;5001048;28;20145;-33
2023/06/13 10:39:14;;;;;;;3.25;2.10;;;;;;;28.74;38.83;101555.28;5002968;28;20053;-32
2023/06/13 10:42:07;;;;;;;2.70;2.17;;;;;;;28.76;38.85;101546.88;5005416;28;20100;-33
2023/06/13 10:44:55;;;;;;;2.95;2.25;;;;;;;28.79;38.85;101549.19;5001158;28;20054;-33
2023/06/13 10:47:23;;;;;;;3.38;2.30;;;;;;;28.81;38.09;101544.34;5003101;28;20119;-32
2023/06/13 10:49:51;;;;;;;3.60;2.40;;;;;;;28.82;38.22;101546.03;5000477;28;20429;-32
2023/06/13 10:52:20;;;;;;;3.25;2.30;;;;;;;28.84;38.03;101535.75;5003533;28;20100;-32
2023/06/13 10:54:54;;;;;;;3.70;2.83;;;;;;;28.85;38.24;101536.59;5005386;28;20081;-32
2023/06/13 10:57:20;;;;;;;2.80;2.40;;;;;;;28.89;38.76;101551.50;5001470;28;20473;-32
2023/06/13 10:59:49;;;;;;;4.05;2.42;;;;;;;28.89;38.45;101535.97;5005372;28;20054;-32
2023/06/13 11:02:17;;;;;;;3.05;2.47;;;;;;;28.91;37.87;101533.06;5004385;28;20489;-32
2023/06/13 11:04:53;;;;;;;2.78;2.05;;;;;;;28.91;38.63;101525.69;5004714;28;20050;-32
2023/06/13 11:07:25;;;;;;;4.18;2.42;;;;;;;28.94;38.04;101532.59;5005204;28;20107;-32
2023/06/13 11:10:22;;;;;;;3.13;2.40;;;;;;;28.94;38.49;101529.88;5002348;28;20042;-33
2023/06/13 11:12:49;;;;;;;3.05;2.13;;;;;;;28.97;38.39;101522.16;5004216;28;20402;-32
2023/06/13 11:15:21;;;;;;;5.18;2.30;;;;;;;28.98;37.80;101526.53;5001984;28;20407;-32
2023/06/13 11:18:06;;;;;;;3.45;2.58;;;;;;;28.99;38.15;101519.22;5003013;28;20104;-32
2023/06/13 11:20:34;;;;;;;6.55;2.70;;;;;;;29.01;37.98;101523.41;5001418;28;20057;-32
2023/06/13 11:23:01;;;;;;;2.00;1.80;;;;;;;29.02;37.89;101525.06;5002391;28;20054;-32
2023/06/13 11:25:28;;;;;;;2.53;2.03;;;;;;;29.04;37.96;101515.84;4999540;28;20081;-33
2023/06/13 11:27:55;;;;;;;3.17;2.40;;;;;;;29.05;38.60;101517.53;4994725;28;20053;-33
2023/06/13 11:30:22;;;;;;;3.55;2.30;;;;;;;29.07;38.12;101518.13;4999386;28;20054;-32
2023/06/13 11:32:50;;;;;;;2.88;2.13;;;;;;;29.09;38.46;101516.06;5001080;28;20050;-32